sensor_id;sensor_type;location;lat;lon;timestamp;pressure;altitude;pressure_sealevel;temperature;humidity
48352;BME280;34163;49.314;6.752;2024-02-26T08:58:56;97763.09;;;5.96;100.00
48352;BME280;34163;49.314;6.752;2024-02-26T09:01:22;97766.75;;;5.93;100.00
48352;BME280;34163;49.314;6.752;2024-02-26T09:03:48;97758.94;;;5.92;100.00
48352;BME280;34163;49.314;6.752;2024-02-26T09:06:14;97754.72;;;5.89;100.00
48352;BME280;34163;49.314;6.752;2024-02-26T09:08:39;97755.31;;;5.94;100.00
48352;BME280;34163;49.314;6.752;2024-02-26T09:11:05;97754.38;;;5.95;100.00
48352;BME280;34163;49.314;6.752;2024-02-26T09:13:30;97759.81;;;5.92;100.00
48352;BME280;34163;49.314;6.752;2024-02-26T09:15:56;97760.34;;;5.99;100.00
48352;BME280;34163;49.314;6.752;2024-02-26T09:18:21;97759.41;;;6.00;100.00
48352;BME280;34163;49.314;6.752;2024-02-26T09:20:46;97769.94;;;6.00;100.00
48352;BME280;34163;49.314;6.752;2024-02-26T09:23:11;97764.75;;;5.98;100.00
48352;BME280;34163;49.314;6.752;2024-02-26T09:25:36;97772.66;;;5.98;100.00
48352;BME280;34163;49.314;6.752;2024-02-26T09:28:02;97770.69;;;6.02;100.00
48352;BME280;34163;49.314;6.752;2024-02-26T09:30:28;97774.16;;;6.03;100.00
48352;BME280;34163;49.314;6.752;2024-02-26T09:32:53;97775.09;;;6.02;100.00
48352;BME280;34163;49.314;6.752;2024-02-26T09:35:18;97779.75;;;5.96;100.00
48352;BME280;34163;49.314;6.752;2024-02-26T09:37:44;97783.91;;;6.00;100.00
48352;BME280;34163;49.314;6.752;2024-02-26T09:40:09;97787.97;;;6.06;100.00
48352;BME280;34163;49.314;6.752;2024-02-26T09:42:40;97793.13;;;6.08;100.00
48352;BME280;34163;49.314;6.752;2024-02-26T09:45:08;97792.47;;;6.04;100.00
48352;BME280;34163;49.314;6.752;2024-02-26T09:47:35;97796.06;;;6.03;100.00
48352;BME280;34163;49.314;6.752;2024-02-26T09:50:01;97796.13;;;6.02;100.00
48352;BME280;34163;49.314;6.752;2024-02-26T09:52:28;97803.94;;;6.03;100.00
48352;BME280;34163;49.314;6.752;2024-02-26T09:54:53;97804.59;;;6.07;100.00
48352;BME280;34163;49.314;6.752;2024-02-26T09:57:18;97804.69;;;6.05;100.00
48352;BME280;34163;49.314;6.752;2024-02-26T09:59:44;97811.53;;;6.08;100.00
48352;BME280;34163;49.314;6.752;2024-02-26T10:02:12;97808.81;;;6.09;100.00
48352;BME280;34163;49.314;6.752;2024-02-26T10:04:45;97809.69;;;6.10;100.00
48352;BME280;34163;49.314;6.752;2024-02-26T10:07:12;97798.31;;;6.09;100.00
48352;BME280;34163;49.314;6.752;2024-02-26T10:09:38;97792.97;;;6.11;100.00
48352;BME280;34163;49.314;6.752;2024-02-26T10:12:10;97800.94;;;6.09;100.00
48352;BME280;34163;49.314;6.752;2024-02-26T10:14:35;97794.00;;;6.08;100.00
48352;BME280;34163;49.314;6.752;2024-02-26T10:17:01;97796.63;;;6.08;100.00
48352;BME280;34163;49.314;6.752;2024-02-26T10:19:27;97806.13;;;6.11;100.00
48352;BME280;34163;49.314;6.752;2024-02-26T10:21:55;97816.63;;;6.11;100.00
48352;BME280;34163;49.314;6.752;2024-02-26T10:24:21;97809.53;;;6.13;100.00
48352;BME280;34163;49.314;6.752;2024-02-26T10:26:46;97813.09;;;6.12;100.00
48352;BME280;34163;49.314;6.752;2024-02-26T10:29:12;97824.34;;;6.14;100.00
48352;BME280;34163;49.314;6.752;2024-02-26T10:31:37;97830.72;;;6.10;100.00
48352;BME280;34163;49.314;6.752;2024-02-26T10:34:02;97828.84;;;6.12;100.00
48352;BME280;34163;49.314;6.752;2024-02-26T10:36:28;97829.53;;;6.15;100.00
48352;BME280;34163;49.314;6.752;2024-02-26T10:38:54;97827.78;;;6.16;100.00
48352;BME280;34163;49.314;6.752;2024-02-26T10:41:19;97835.81;;;6.13;100.00
48352;BME280;34163;49.314;6.752;2024-02-26T10:43:47;97831.56;;;6.10;100.00
48352;BME280;34163;49.314;6.752;2024-02-26T10:46:12;97828.69;;;6.15;100.00
48352;BME280;34163;49.314;6.752;2024-02-26T10:48:39;97842.94;;;6.11;100.00
48352;BME280;34163;49.314;6.752;2024-02-26T10:51:04;97836.84;;;6.10;100.00
48352;BME280;34163;49.314;6.752;2024-02-26T10:53:29;97846.94;;;6.18;100.00
48352;BME280;34163;49.314;6.752;2024-02-26T10:56:01;97845.06;;;6.20;100.00
48352;BME280;34163;49.314;6.752;2024-02-26T10:58:28;97849.56;;;6.18;100.00
48352;BME280;34163;49.314;6.752;2024-02-26T11:00:54;97850.31;;;6.20;100.00
48352;BME280;34163;49.314;6.752;2024-02-26T11:03:21;97858.03;;;6.23;100.00
48352;BME280;34163;49.314;6.752;2024-02-26T11:05:50;97870.44;;;6.21;100.00
48352;BME280;34163;49.314;6.752;2024-02-26T11:08:18;97866.25;;;6.17;100.00
48352;BME280;34163;49.314;6.752;2024-02-26T11:10:46;97865.25;;;6.20;100.00
48352;BME280;34163;49.314;6.752;2024-02-26T11:13:12;97864.22;;;6.22;100.00
48352;BME280;34163;49.314;6.752;2024-02-26T11:15:39;97871.19;;;6.23;100.00
48352;BME280;34163;49.314;6.752;2024-02-26T11:18:04;97872.31;;;6.19;100.00
48352;BME280;34163;49.314;6.752;2024-02-26T11:20:30;97871.44;;;6.18;100.00
48352;BME280;34163;49.314;6.752;2024-02-26T11:22:57;97877.38;;;6.22;100.00
48352;BME280;34163;49.314;6.752;2024-02-26T11:25:22;97869.47;;;6.22;100.00
48352;BME280;34163;49.314;6.752;2024-02-26T11:30:43;97874.66;;;6.24;100.00
48352;BME280;34163;49.314;6.752;2024-02-26T11:33:09;97883.31;;;6.26;100.00
48352;BME280;34163;49.314;6.752;2024-02-26T11:35:38;97886.03;;;6.24;100.00
48352;BME280;34163;49.314;6.752;2024-02-26T11:38:04;97886.97;;;6.23;100.00
48352;BME280;34163;49.314;6.752;2024-02-26T11:40:31;97887.03;;;6.22;100.00
48352;BME280;34163;49.314;6.752;2024-02-26T11:42:56;97881.69;;;6.23;100.00
48352;BME280;34163;49.314;6.752;2024-02-26T11:48:16;97889.00;;;6.18;100.00
48352;BME280;34163;49.314;6.752;2024-02-26T11:50:48;97884.50;;;6.20;100.00
48352;BME280;34163;49.314;6.752;2024-02-26T11:53:21;97888.91;;;6.20;100.00
48352;BME280;34163;49.314;6.752;2024-02-26T11:55:46;97879.06;;;6.23;100.00
48352;BME280;34163;49.314;6.752;2024-02-26T11:58:12;97882.63;;;6.22;100.00
48352;BME280;34163;49.314;6.752;2024-02-26T12:00:39;97883.31;;;6.26;100.00
48352;BME280;34163;49.314;6.752;2024-02-26T12:03:04;97885.16;;;6.24;100.00
48352;BME280;34163;49.314;6.752;2024-02-26T12:05:33;97893.94;;;6.24;100.00
48352;BME280;34163;49.314;6.752;2024-02-26T12:07:59;97889.34;;;6.28;100.00
48352;BME280;34163;49.314;6.752;2024-02-26T12:10:30;97892.81;;;6.28;100.00
48352;BME280;34163;49.314;6.752;2024-02-26T12:13:05;97891.13;;;6.27;100.00
48352;BME280;34163;49.314;6.752;2024-02-26T12:15:38;97889.44;;;6.26;100.00
48352;BME280;34163;49.314;6.752;2024-02-26T12:18:04;97886.63;;;6.29;100.00
48352;BME280;34163;49.314;6.752;2024-02-26T12:20:30;97885.78;;;6.29;100.00
48352;BME280;34163;49.314;6.752;2024-02-26T12:22:56;97890.97;;;6.30;100.00
48352;BME280;34163;49.314;6.752;2024-02-26T12:25:23;97893.59;;;6.30;100.00
48352;BME280;34163;49.314;6.752;2024-02-26T12:27:48;97892.97;;;6.25;100.00
48352;BME280;34163;49.314;6.752;2024-02-26T12:30:14;97894.53;;;6.29;100.00
48352;BME280;34163;49.314;6.752;2024-02-26T12:32:39;97896.22;;;6.30;100.00
48352;BME280;34163;49.314;6.752;2024-02-26T12:35:05;97895.28;;;6.31;100.00
48352;BME280;34163;49.314;6.752;2024-02-26T12:37:31;97885.88;;;6.27;100.00
48352;BME280;34163;49.314;6.752;2024-02-26T12:39:57;97886.72;;;6.28;100.00
48352;BME280;34163;49.314;6.752;2024-02-26T12:42:22;97888.41;;;6.29;100.00
48352;BME280;34163;49.314;6.752;2024-02-26T12:44:49;97891.81;;;6.31;100.00
48352;BME280;34163;49.314;6.752;2024-02-26T12:47:14;97889.25;;;6.29;100.00
48352;BME280;34163;49.314;6.752;2024-02-26T12:49:42;97887.56;;;6.28;100.00
48352;BME280;34163;49.314;6.752;2024-02-26T12:52:07;97890.97;;;6.30;100.00
48352;BME280;34163;49.314;6.752;2024-02-26T12:54:33;97886.88;;;6.25;100.00
48352;BME280;34163;49.314;6.752;2024-02-26T12:56:59;97885.00;;;6.27;100.00
48352;BME280;34163;49.314;6.752;2024-02-26T12:59:25;97889.25;;;6.29;100.00
48352;BME280;34163;49.314;6.752;2024-02-26T13:01:51;97891.88;;;6.29;100.00
48352;BME280;34163;49.314;6.752;2024-02-26T13:04:16;97893.50;;;6.32;100.00
48352;BME280;34163;49.314;6.752;2024-02-26T13:06:42;97893.69;;;6.29;100.00
48352;BME280;34163;49.314;6.752;2024-02-26T13:09:08;97903.34;;;6.28;100.00
48352;BME280;34163;49.314;6.752;2024-02-26T13:11:34;97900.53;;;6.31;100.00
48352;BME280;34163;49.314;6.752;2024-02-26T13:13:59;97903.94;;;6.33;100.00
48352;BME280;34163;49.314;6.752;2024-02-26T13:16:25;97897.91;;;6.31;100.00
48352;BME280;34163;49.314;6.752;2024-02-26T13:18:52;97906.91;;;6.27;100.00
48352;BME280;34163;49.314;6.752;2024-02-26T13:21:18;97908.59;;;6.28;100.00
48352;BME280;34163;49.314;6.752;2024-02-26T13:23:43;97915.41;;;6.32;100.00
48352;BME280;34163;49.314;6.752;2024-02-26T13:26:13;97917.19;;;6.32;100.00
48352;BME280;34163;49.314;6.752;2024-02-26T13:28:38;97917.09;;;6.33;100.00
48352;BME280;34163;49.314;6.752;2024-02-26T13:31:04;97919.13;;;6.28;100.00
48352;BME280;34163;49.314;6.752;2024-02-26T13:33:32;97924.38;;;6.28;100.00
48352;BME280;34163;49.314;6.752;2024-02-26T13:35:58;97922.38;;;6.33;100.00
48352;BME280;34163;49.314;6.752;2024-02-26T13:38:24;97917.28;;;6.30;100.00
48352;BME280;34163;49.314;6.752;2024-02-26T13:40:50;97919.72;;;6.33;100.00
48352;BME280;34163;49.314;6.752;2024-02-26T13:43:15;97922.38;;;6.33;100.00
48352;BME280;34163;49.314;6.752;2024-02-26T13:45:42;97918.78;;;6.34;100.00
48352;BME280;34163;49.314;6.752;2024-02-26T13:48:09;97919.53;;;6.36;100.00
48352;BME280;34163;49.314;6.752;2024-02-26T13:50:36;97920.50;;;6.35;100.00
48352;BME280;34163;49.314;6.752;2024-02-26T13:53:01;97913.50;;;6.34;100.00
48352;BME280;34163;49.314;6.752;2024-02-26T13:55:27;97909.97;;;6.35;100.00
48352;BME280;34163;49.314;6.752;2024-02-26T13:57:57;97918.63;;;6.38;100.00
48352;BME280;34163;49.314;6.752;2024-02-26T14:00:22;97919.44;;;6.38;100.00
48352;BME280;34163;49.314;6.752;2024-02-26T14:02:48;97921.25;;;6.38;100.00
48352;BME280;34163;49.314;6.752;2024-02-26T14:05:13;97923.88;;;6.38;100.00
48352;BME280;34163;49.314;6.752;2024-02-26T14:07:39;97917.84;;;6.35;100.00
48352;BME280;34163;49.314;6.752;2024-02-26T14:10:04;97921.56;;;6.31;100.00
48352;BME280;34163;49.314;6.752;2024-02-26T14:12:30;97923.38;;;6.31;100.00
48352;BME280;34163;49.314;6.752;2024-02-26T14:14:55;97925.16;;;6.30;100.00
48352;BME280;34163;49.314;6.752;2024-02-26T14:17:21;97934.91;;;6.28;100.00
48352;BME280;34163;49.314;6.752;2024-02-26T14:19:46;97930.34;;;6.32;100.00
48352;BME280;34163;49.314;6.752;2024-02-26T14:22:13;97933.63;;;6.35;100.00
48352;BME280;34163;49.314;6.752;2024-02-26T14:24:38;97929.69;;;7.21;100.00
48352;BME280;34163;49.314;6.752;2024-02-26T14:27:04;97934.00;;;7.52;100.00
48352;BME280;34163;49.314;6.752;2024-02-26T14:29:30;97935.69;;;6.62;100.00
48352;BME280;34163;49.314;6.752;2024-02-26T14:31:55;97940.25;;;5.42;100.00
48352;BME280;34163;49.314;6.752;2024-02-26T14:34:21;97936.94;;;5.04;100.00
48352;BME280;34163;49.314;6.752;2024-02-26T14:36:46;97947.91;;;4.77;100.00
48352;BME280;34163;49.314;6.752;2024-02-26T14:39:12;97950.16;;;4.66;100.00
48352;BME280;34163;49.314;6.752;2024-02-26T14:41:38;97954.59;;;4.46;100.00
48352;BME280;34163;49.314;6.752;2024-02-26T14:44:03;97956.94;;;4.33;100.00
48352;BME280;34163;49.314;6.752;2024-02-26T14:46:28;97960.66;;;4.29;100.00
48352;BME280;34163;49.314;6.752;2024-02-26T14:48:54;97963.69;;;4.39;100.00
48352;BME280;34163;49.314;6.752;2024-02-26T14:51:19;97964.94;;;4.30;100.00
48352;BME280;34163;49.314;6.752;2024-02-26T14:53:44;97952.78;;;4.29;100.00
48352;BME280;34163;49.314;6.752;2024-02-26T14:56:09;97972.31;;;4.22;100.00
48352;BME280;34163;49.314;6.752;2024-02-26T14:58:35;97974.38;;;4.15;100.00
48352;BME280;34163;49.314;6.752;2024-02-26T15:01:00;97968.44;;;4.12;100.00
48352;BME280;34163;49.314;6.752;2024-02-26T15:03:25;97979.56;;;4.17;100.00
48352;BME280;34163;49.314;6.752;2024-02-26T15:05:50;97974.59;;;4.11;100.00
48352;BME280;34163;49.314;6.752;2024-02-26T15:08:16;97978.50;;;4.02;100.00
48352;BME280;34163;49.314;6.752;2024-02-26T15:10:41;97983.63;;;4.04;100.00
48352;BME280;34163;49.314;6.752;2024-02-26T15:13:13;97986.91;;;4.09;100.00
48352;BME280;34163;49.314;6.752;2024-02-26T15:15:38;97988.50;;;3.92;100.00
48352;BME280;34163;49.314;6.752;2024-02-26T15:18:06;97986.81;;;3.91;100.00
48352;BME280;34163;49.314;6.752;2024-02-26T15:20:31;97988.72;;;3.88;100.00
48352;BME280;34163;49.314;6.752;2024-02-26T15:22:56;97986.88;;;3.90;100.00
48352;BME280;34163;49.314;6.752;2024-02-26T15:25:22;97988.88;;;3.85;100.00
48352;BME280;34163;49.314;6.752;2024-02-26T15:27:47;97996.78;;;3.83;100.00
48352;BME280;34163;49.314;6.752;2024-02-26T15:30:12;97997.78;;;3.80;100.00
48352;BME280;34163;49.314;6.752;2024-02-26T15:32:38;98002.69;;;3.88;100.00
48352;BME280;34163;49.314;6.752;2024-02-26T15:35:03;98016.31;;;3.76;100.00
48352;BME280;34163;49.314;6.752;2024-02-26T15:37:31;98009.91;;;3.83;100.00
48352;BME280;34163;49.314;6.752;2024-02-26T15:40:00;98018.94;;;3.76;100.00
48352;BME280;34163;49.314;6.752;2024-02-26T15:42:27;98023.72;;;3.66;100.00
48352;BME280;34163;49.314;6.752;2024-02-26T15:44:53;98030.66;;;3.67;100.00
48352;BME280;34163;49.314;6.752;2024-02-26T15:47:20;98036.81;;;3.66;100.00
48352;BME280;34163;49.314;6.752;2024-02-26T15:49:46;98042.88;;;3.87;100.00
48352;BME280;34163;49.314;6.752;2024-02-26T15:52:12;98037.91;;;4.02;100.00
48352;BME280;34163;49.314;6.752;2024-02-26T15:54:37;98047.19;;;4.48;100.00
48352;BME280;34163;49.314;6.752;2024-02-26T15:57:03;98054.25;;;4.65;100.00
48352;BME280;34163;49.314;6.752;2024-02-26T15:59:39;98052.88;;;4.77;100.00
48352;BME280;34163;49.314;6.752;2024-02-26T16:02:18;98063.78;;;4.87;100.00
48352;BME280;34163;49.314;6.752;2024-02-26T16:04:48;98065.72;;;5.01;100.00
48352;BME280;34163;49.314;6.752;2024-02-26T16:07:23;98069.16;;;5.03;100.00
48352;BME280;34163;49.314;6.752;2024-02-26T16:09:52;98072.25;;;5.11;100.00
48352;BME280;34163;49.314;6.752;2024-02-26T16:12:19;98076.66;;;5.11;100.00
48352;BME280;34163;49.314;6.752;2024-02-26T16:14:49;98079.03;;;5.15;100.00
48352;BME280;34163;49.314;6.752;2024-02-26T16:17:20;98081.53;;;5.18;100.00
48352;BME280;34163;49.314;6.752;2024-02-26T16:19:46;98084.88;;;5.22;100.00
48352;BME280;34163;49.314;6.752;2024-02-26T16:22:11;98088.13;;;5.27;100.00
48352;BME280;34163;49.314;6.752;2024-02-26T16:24:36;98094.06;;;5.31;100.00
48352;BME280;34163;49.314;6.752;2024-02-26T16:27:02;98099.47;;;5.27;100.00
48352;BME280;34163;49.314;6.752;2024-02-26T16:29:27;98094.53;;;5.39;100.00
48352;BME280;34163;49.314;6.752;2024-02-26T16:32:04;98091.91;;;5.39;100.00
48352;BME280;34163;49.314;6.752;2024-02-26T16:34:29;98086.50;;;5.42;100.00
48352;BME280;34163;49.314;6.752;2024-02-26T16:36:55;98098.75;;;5.43;100.00
48352;BME280;34163;49.314;6.752;2024-02-26T16:39:20;98102.28;;;5.42;100.00
48352;BME280;34163;49.314;6.752;2024-02-26T16:41:46;98117.75;;;5.48;100.00
48352;BME280;34163;49.314;6.752;2024-02-26T16:44:11;98117.81;;;5.46;100.00
48352;BME280;34163;49.314;6.752;2024-02-26T16:46:36;98124.06;;;5.44;100.00
48352;BME280;34163;49.314;6.752;2024-02-26T16:49:02;98131.94;;;5.44;100.00
48352;BME280;34163;49.314;6.752;2024-02-26T16:51:29;98132.59;;;5.49;100.00
48352;BME280;34163;49.314;6.752;2024-02-26T16:53:56;98137.78;;;5.51;100.00
48352;BME280;34163;49.314;6.752;2024-02-26T16:56:24;98142.00;;;5.53;100.00
48352;BME280;34163;49.314;6.752;2024-02-26T16:58:49;98150.50;;;5.58;100.00
48352;BME280;34163;49.314;6.752;2024-02-26T17:01:14;98153.94;;;5.60;100.00
48352;BME280;34163;49.314;6.752;2024-02-26T17:03:42;98161.91;;;5.59;100.00
48352;BME280;34163;49.314;6.752;2024-02-26T17:06:10;98157.78;;;5.53;100.00
48352;BME280;34163;49.314;6.752;2024-02-26T17:08:35;98168.91;;;5.58;100.00
48352;BME280;34163;49.314;6.752;2024-02-26T17:11:06;98182.78;;;5.62;100.00
48352;BME280;34163;49.314;6.752;2024-02-26T17:13:34;98188.03;;;5.62;100.00
48352;BME280;34163;49.314;6.752;2024-02-26T17:16:02;98187.09;;;5.63;100.00
48352;BME280;34163;49.314;6.752;2024-02-26T17:18:27;98187.81;;;5.67;100.00
48352;BME280;34163;49.314;6.752;2024-02-26T17:20:53;98192.13;;;5.68;100.00
48352;BME280;34163;49.314;6.752;2024-02-26T17:23:20;98193.00;;;5.68;100.00
48352;BME280;34163;49.314;6.752;2024-02-26T17:26:03;98199.78;;;5.72;100.00
48352;BME280;34163;49.314;6.752;2024-02-26T17:28:39;98204.19;;;5.72;100.00
48352;BME280;34163;49.314;6.752;2024-02-26T17:31:09;98207.44;;;5.77;100.00
48352;BME280;34163;49.314;6.752;2024-02-26T17:34:03;98213.81;;;5.73;100.00
48352;BME280;34163;49.314;6.752;2024-02-26T17:36:36;98216.44;;;5.73;100.00
48352;BME280;34163;49.314;6.752;2024-02-26T17:39:01;98224.00;;;5.79;100.00
48352;BME280;34163;49.314;6.752;2024-02-26T17:41:29;98224.78;;;5.81;100.00
48352;BME280;34163;49.314;6.752;2024-02-26T17:44:23;98227.50;;;5.79;100.00
48352;BME280;34163;49.314;6.752;2024-02-26T17:46:57;98235.94;;;5.86;100.00
48352;BME280;34163;49.314;6.752;2024-02-26T17:49:22;98253.63;;;5.82;100.00
48352;BME280;34163;49.314;6.752;2024-02-26T17:51:59;98248.59;;;5.78;100.00
48352;BME280;34163;49.314;6.752;2024-02-26T17:54:26;98259.59;;;5.86;100.00
48352;BME280;34163;49.314;6.752;2024-02-26T17:56:52;98259.59;;;5.86;100.00
48352;BME280;34163;49.314;6.752;2024-02-26T17:59:18;98271.16;;;5.82;100.00
48352;BME280;34163;49.314;6.752;2024-02-26T18:01:43;98270.94;;;5.87;100.00
48352;BME280;34163;49.314;6.752;2024-02-26T18:04:14;98278.00;;;5.86;100.00
48352;BME280;34163;49.314;6.752;2024-02-26T18:06:39;98283.09;;;5.89;100.00
48352;BME280;34163;49.314;6.752;2024-02-26T18:09:06;98286.63;;;5.88;100.00
48352;BME280;34163;49.314;6.752;2024-02-26T18:11:32;98287.28;;;5.93;100.00
48352;BME280;34163;49.314;6.752;2024-02-26T18:16:53;98301.72;;;5.85;100.00
48352;BME280;34163;49.314;6.752;2024-02-26T18:19:22;98305.19;;;5.85;100.00
48352;BME280;34163;49.314;6.752;2024-02-26T18:21:56;98312.94;;;5.88;100.00
48352;BME280;34163;49.314;6.752;2024-02-26T18:24:23;98314.56;;;5.91;100.00
48352;BME280;34163;49.314;6.752;2024-02-26T18:26:54;98315.41;;;5.91;100.00
48352;BME280;34163;49.314;6.752;2024-02-26T18:29:42;98319.84;;;5.91;100.00
48352;BME280;34163;49.314;6.752;2024-02-26T18:32:07;98325.25;;;5.88;100.00
48352;BME280;34163;49.314;6.752;2024-02-26T18:34:35;98326.06;;;5.88;100.00
48352;BME280;34163;49.314;6.752;2024-02-26T18:37:04;98332.19;;;5.89;100.00
48352;BME280;34163;49.314;6.752;2024-02-26T18:39:29;98337.13;;;5.96;100.00
48352;BME280;34163;49.314;6.752;2024-02-26T18:41:58;98348.69;;;5.92;100.00
48352;BME280;34163;49.314;6.752;2024-02-26T18:44:34;98356.72;;;5.89;100.00
48352;BME280;34163;49.314;6.752;2024-02-26T18:46:59;98361.03;;;5.90;100.00
48352;BME280;34163;49.314;6.752;2024-02-26T18:49:24;98366.28;;;5.90;100.00
48352;BME280;34163;49.314;6.752;2024-02-26T18:51:52;98382.69;;;5.97;100.00
48352;BME280;34163;49.314;6.752;2024-02-26T18:54:18;98375.88;;;5.91;100.00
48352;BME280;34163;49.314;6.752;2024-02-26T18:56:43;98380.38;;;5.89;100.00
48352;BME280;34163;49.314;6.752;2024-02-26T18:59:09;98380.38;;;5.89;100.00
48352;BME280;34163;49.314;6.752;2024-02-26T19:01:39;98387.47;;;5.87;100.00
48352;BME280;34163;49.314;6.752;2024-02-26T19:04:05;98398.97;;;5.85;100.00
48352;BME280;34163;49.314;6.752;2024-02-26T19:06:30;98404.25;;;5.85;100.00
48352;BME280;34163;49.314;6.752;2024-02-26T19:08:57;98398.84;;;5.88;100.00
48352;BME280;34163;49.314;6.752;2024-02-26T19:11:22;98404.81;;;5.91;100.00
48352;BME280;34163;49.314;6.752;2024-02-26T19:13:48;98415.25;;;5.93;100.00
48352;BME280;34163;49.314;6.752;2024-02-26T19:16:13;98418.63;;;5.96;100.00
48352;BME280;34163;49.314;6.752;2024-02-26T19:18:39;98423.75;;;5.99;100.00
48352;BME280;34163;49.314;6.752;2024-02-26T19:21:04;98431.78;;;5.96;100.00
48352;BME280;34163;49.314;6.752;2024-02-26T19:23:30;98425.59;;;5.97;100.00
48352;BME280;34163;49.314;6.752;2024-02-26T19:25:58;98435.28;;;5.97;100.00
48352;BME280;34163;49.314;6.752;2024-02-26T19:28:24;98441.22;;;6.00;100.00
48352;BME280;34163;49.314;6.752;2024-02-26T19:30:49;98441.38;;;5.97;100.00
48352;BME280;34163;49.314;6.752;2024-02-26T19:33:15;98444.00;;;5.97;100.00
48352;BME280;34163;49.314;6.752;2024-02-26T19:35:42;98451.03;;;5.97;100.00
48352;BME280;34163;49.314;6.752;2024-02-26T19:38:08;98450.03;;;5.99;100.00
48352;BME280;34163;49.314;6.752;2024-02-26T19:40:33;98450.16;;;5.96;100.00
48352;BME280;34163;49.314;6.752;2024-02-26T19:43:01;98457.78;;;6.03;100.00
48352;BME280;34163;49.314;6.752;2024-02-26T19:45:28;98453.59;;;5.98;100.00
48352;BME280;34163;49.314;6.752;2024-02-26T19:47:54;98454.38;;;6.00;100.00
48352;BME280;34163;49.314;6.752;2024-02-26T19:50:19;98446.63;;;5.97;100.00
48352;BME280;34163;49.314;6.752;2024-02-26T19:52:44;98459.72;;;5.99;100.00
48352;BME280;34163;49.314;6.752;2024-02-26T19:55:12;98463.25;;;5.98;100.00
48352;BME280;34163;49.314;6.752;2024-02-26T19:57:37;98460.56;;;5.99;100.00
48352;BME280;34163;49.314;6.752;2024-02-26T20:00:02;98473.88;;;5.95;100.00
48352;BME280;34163;49.314;6.752;2024-02-26T20:02:28;98474.50;;;6.02;100.00
48352;BME280;34163;49.314;6.752;2024-02-26T20:04:53;98488.69;;;5.97;100.00
48352;BME280;34163;49.314;6.752;2024-02-26T20:07:20;98490.53;;;5.95;100.00
48352;BME280;34163;49.314;6.752;2024-02-26T20:09:46;98490.53;;;5.95;100.00
48352;BME280;34163;49.314;6.752;2024-02-26T20:15:18;98506.91;;;6.02;100.00
48352;BME280;34163;49.314;6.752;2024-02-26T20:17:52;98510.59;;;5.98;100.00
48352;BME280;34163;49.314;6.752;2024-02-26T20:20:17;98518.53;;;5.96;100.00
48352;BME280;34163;49.314;6.752;2024-02-26T20:22:43;98526.28;;;5.99;100.00
48352;BME280;34163;49.314;6.752;2024-02-26T20:25:11;98532.44;;;6.00;100.00
48352;BME280;34163;49.314;6.752;2024-02-26T20:27:37;98537.63;;;6.02;100.00
48352;BME280;34163;49.314;6.752;2024-02-26T20:30:02;98546.28;;;6.04;100.00
48352;BME280;34163;49.314;6.752;2024-02-26T20:32:28;98548.28;;;5.98;100.00
48352;BME280;34163;49.314;6.752;2024-02-26T20:34:54;98549.94;;;5.99;100.00
48352;BME280;34163;49.314;6.752;2024-02-26T20:37:19;98549.88;;;6.01;100.00
48352;BME280;34163;49.314;6.752;2024-02-26T20:39:47;98554.38;;;5.99;100.00
48352;BME280;34163;49.314;6.752;2024-02-26T20:42:12;98563.09;;;5.99;100.00
48352;BME280;34163;49.314;6.752;2024-02-26T20:44:37;98560.53;;;5.98;100.00
48352;BME280;34163;49.314;6.752;2024-02-26T20:47:06;98565.88;;;5.96;100.00
48352;BME280;34163;49.314;6.752;2024-02-26T20:49:34;98569.41;;;5.95;100.00
48352;BME280;34163;49.314;6.752;2024-02-26T20:51:59;98564.16;;;5.95;100.00
48352;BME280;34163;49.314;6.752;2024-02-26T20:54:27;98566.78;;;5.95;100.00
48352;BME280;34163;49.314;6.752;2024-02-26T20:56:52;98564.81;;;6.00;100.00
48352;BME280;34163;49.314;6.752;2024-02-26T20:59:18;98573.56;;;6.01;100.00
48352;BME280;34163;49.314;6.752;2024-02-26T21:01:43;98569.16;;;6.02;100.00
48352;BME280;34163;49.314;6.752;2024-02-26T21:04:09;98586.63;;;6.03;100.00
48352;BME280;34163;49.314;6.752;2024-02-26T21:06:35;98580.66;;;5.99;100.00
48352;BME280;34163;49.314;6.752;2024-02-26T21:09:02;98578.75;;;6.03;100.00
48352;BME280;34163;49.314;6.752;2024-02-26T21:11:31;98589.34;;;6.01;100.00
48352;BME280;34163;49.314;6.752;2024-02-26T21:13:58;98589.34;;;6.01;100.00
48352;BME280;34163;49.314;6.752;2024-02-26T21:16:23;98591.19;;;5.99;100.00
48352;BME280;34163;49.314;6.752;2024-02-26T21:18:51;98591.19;;;5.99;100.00
48352;BME280;34163;49.314;6.752;2024-02-26T21:21:16;98600.84;;;5.98;100.00
48352;BME280;34163;49.314;6.752;2024-02-26T21:23:44;98605.81;;;6.05;100.00
48352;BME280;34163;49.314;6.752;2024-02-26T21:26:09;98612.22;;;5.99;100.00
48352;BME280;34163;49.314;6.752;2024-02-26T21:28:34;98615.75;;;5.98;100.00
48352;BME280;34163;49.314;6.752;2024-02-26T21:31:01;98618.31;;;5.99;100.00
48352;BME280;34163;49.314;6.752;2024-02-26T21:33:29;98610.66;;;5.93;100.00
48352;BME280;34163;49.314;6.752;2024-02-26T21:36:00;98614.78;;;6.00;100.00
48352;BME280;34163;49.314;6.752;2024-02-26T21:38:26;98616.72;;;5.95;100.00
48352;BME280;34163;49.314;6.752;2024-02-26T21:40:54;98623.44;;;6.03;100.00
48352;BME280;34163;49.314;6.752;2024-02-26T21:43:19;98630.56;;;6.00;100.00
48352;BME280;34163;49.314;6.752;2024-02-26T21:45:44;98634.09;;;5.99;100.00
48352;BME280;34163;49.314;6.752;2024-02-26T21:48:10;98632.50;;;5.95;100.00
48352;BME280;34163;49.314;6.752;2024-02-26T21:50:35;98640.38;;;5.97;100.00
48352;BME280;34163;49.314;6.752;2024-02-26T21:53:01;98637.72;;;5.97;100.00
48352;BME280;34163;49.314;6.752;2024-02-26T21:55:29;98643.03;;;5.95;100.00
48352;BME280;34163;49.314;6.752;2024-02-26T21:57:54;98652.00;;;5.90;100.00
48352;BME280;34163;49.314;6.752;2024-02-26T22:00:20;98655.34;;;5.93;100.00
48352;BME280;34163;49.314;6.752;2024-02-26T22:02:45;98655.28;;;5.95;100.00
48352;BME280;34163;49.314;6.752;2024-02-26T22:05:11;98662.34;;;5.94;100.00
48352;BME280;34163;49.314;6.752;2024-02-26T22:07:36;98659.78;;;5.93;100.00